Terminal Aerodrome Forecast
Issued by NWS

Home | Current Version | Previous Version | Text Only | Print | Product List | Glossary On
Versions: 1 2 3 4 5 6 7 8 9 10 11 12 13 14 15 16 17 18 19 20 21 22 23 24
000
FTPA31 PHFO 021700
TAFOGG
TAF
PHOG 021735Z 0218/0318 VRB03KT P6SM FEW020
     FM022000 01008KT P6SM SCT030 SCT050
     FM030000 04012KT P6SM SCT030 SCT050
     FM030500 04005KT P6SM FEW030
     FM031000 15005KT P6SM FEW030
      AMD LTD TO VIS AND WIND 0309/0316=

USA.gov is the U.S. government's official web portal to all federal, state and local government web resources and services.